createdAt,value
2022-10-19T00:00:00.967Z,95961.19
2022-10-19T00:02:27.820Z,95961.66
2022-10-19T00:04:54.546Z,95948.94
2022-10-19T00:07:22.266Z,95950.50
2022-10-19T00:09:48.980Z,95955.47
2022-10-19T00:12:15.624Z,95949.72
2022-10-19T00:14:42.276Z,95947.22
2022-10-19T00:17:08.891Z,95948.56
2022-10-19T00:19:35.536Z,95950.19
2022-10-19T00:22:02.174Z,95956.84
2022-10-19T00:24:29.056Z,95953.63
2022-10-19T00:26:55.839Z,95955.81
2022-10-19T00:29:22.483Z,95951.16
2022-10-19T00:31:52.263Z,95942.31
2022-10-19T00:34:19.187Z,95941.78
2022-10-19T00:36:48.492Z,95941.63
2022-10-19T00:39:17.296Z,95940.00
2022-10-19T00:41:46.605Z,95946.28
2022-10-19T00:44:13.181Z,95952.75
2022-10-19T00:46:44.267Z,95950.88
2022-10-19T00:49:17.863Z,95954.13
2022-10-19T00:51:50.035Z,95948.13
2022-10-19T00:54:18.956Z,95944.00
2022-10-19T00:56:49.886Z,95951.72
2022-10-19T00:59:23.159Z,95951.72
2022-10-19T01:01:50.336Z,95949.13
2022-10-19T01:04:19.597Z,95947.16
2022-10-19T01:06:46.654Z,95951.31
2022-10-19T01:09:13.965Z,95953.19
2022-10-19T01:11:50.780Z,95942.09
2022-10-19T01:14:35.045Z,95946.00
2022-10-19T01:17:23.333Z,95943.25
2022-10-19T01:20:27.355Z,95940.22
2022-10-19T01:23:05.520Z,95925.66
2022-10-19T01:25:47.595Z,95922.66
2022-10-19T01:28:25.974Z,95918.47
2022-10-19T01:31:04.544Z,95927.66
2022-10-19T01:33:47.281Z,95913.03
2022-10-19T01:36:37.024Z,95913.19
2022-10-19T01:39:18.822Z,95920.19
2022-10-19T01:42:10.698Z,95916.22
2022-10-19T01:45:00.628Z,95918.06
2022-10-19T01:47:50.932Z,95913.13
2022-10-19T01:50:26.783Z,95916.66
2022-10-19T01:52:56.513Z,95923.63
2022-10-19T01:55:27.192Z,95919.16
2022-10-19T01:58:01.725Z,95915.31
2022-10-19T02:00:31.199Z,95915.34
2022-10-19T02:03:00.516Z,95912.09
2022-10-19T02:05:32.893Z,95908.22
2022-10-19T02:08:06.375Z,95909.00
2022-10-19T02:10:38.222Z,95912.63
2022-10-19T02:13:07.921Z,95909.13
2022-10-19T02:15:41.182Z,95912.34
2022-10-19T02:18:12.648Z,95903.56
2022-10-19T02:20:39.332Z,95909.47
2022-10-19T02:23:07.582Z,95905.50
2022-10-19T02:25:34.850Z,95901.63
2022-10-19T02:28:04.802Z,95894.22
2022-10-19T02:30:31.871Z,95890.22
2022-10-19T02:32:58.704Z,95893.75
2022-10-19T02:35:26.837Z,95883.84
2022-10-19T02:37:54.446Z,95881.25
2022-10-19T02:40:21.991Z,95875.78
2022-10-19T02:43:00.366Z,95882.06
2022-10-19T02:45:37.413Z,95877.63
2022-10-19T02:48:18.661Z,95869.38
2022-10-19T02:50:46.403Z,95872.22
2022-10-19T02:53:13.380Z,95871.53
2022-10-19T02:58:12.517Z,95877.66
2022-10-19T03:00:39.170Z,95875.28
2022-10-19T03:03:06.252Z,95874.53
2022-10-19T03:05:32.841Z,95874.31
2022-10-19T03:08:01.046Z,95882.00
2022-10-19T03:10:27.641Z,95877.19
2022-10-19T03:12:54.228Z,95873.13
2022-10-19T03:15:20.799Z,95875.97
2022-10-19T03:17:47.372Z,95867.00
2022-10-19T03:20:13.960Z,95863.56
2022-10-19T03:22:41.785Z,95864.72
2022-10-19T03:25:08.803Z,95853.75
2022-10-19T03:27:35.769Z,95854.06
2022-10-19T03:30:02.654Z,95857.50
2022-10-19T03:32:29.228Z,95860.91
2022-10-19T03:34:55.824Z,95857.88
2022-10-19T03:37:22.436Z,95847.97
2022-10-19T03:39:49.025Z,95856.28
2022-10-19T03:42:15.638Z,95842.81
2022-10-19T03:44:42.253Z,95850.84
2022-10-19T03:47:08.826Z,95855.03
2022-10-19T03:49:38.042Z,95854.22
2022-10-19T03:52:06.885Z,95846.00
2022-10-19T03:54:33.475Z,95857.59
2022-10-19T03:57:00.063Z,95854.47
2022-10-19T03:59:26.992Z,95857.25
2022-10-19T04:01:53.573Z,95860.94
2022-10-19T04:04:20.502Z,95866.34
2022-10-19T04:06:49.445Z,95862.13
2022-10-19T04:09:19.214Z,95869.91
2022-10-19T04:11:46.101Z,95863.25
2022-10-19T04:14:39.186Z,95864.63
2022-10-19T04:17:12.334Z,95849.72
2022-10-19T04:19:38.907Z,95853.16
2022-10-19T04:22:05.520Z,95850.66
2022-10-19T04:24:32.087Z,95853.69
2022-10-19T04:26:58.785Z,95850.28
2022-10-19T04:29:29.602Z,95852.81
2022-10-19T04:31:56.646Z,95843.72
2022-10-19T04:34:23.223Z,95852.63
2022-10-19T04:36:49.790Z,95854.78
2022-10-19T04:39:21.609Z,95841.16
2022-10-19T04:41:48.284Z,95841.28
2022-10-19T04:44:14.930Z,95844.00
2022-10-19T04:46:41.545Z,95843.91
2022-10-19T04:49:08.132Z,95849.84
2022-10-19T04:51:35.334Z,95847.94
2022-10-19T04:54:03.156Z,95847.84
2022-10-19T04:56:29.912Z,95848.50
2022-10-19T04:58:57.905Z,95843.34
2022-10-19T05:01:26.999Z,95847.00
2022-10-19T05:03:58.831Z,95838.50
2022-10-19T05:06:26.059Z,95841.81
2022-10-19T05:08:53.293Z,95839.41
2022-10-19T05:11:20.621Z,95844.31
2022-10-19T05:13:47.530Z,95835.78
2022-10-19T05:16:19.804Z,95832.47
2022-10-19T05:18:51.950Z,95838.50
2022-10-19T05:21:19.539Z,95823.25
2022-10-19T05:23:46.146Z,95821.09
2022-10-19T05:26:15.807Z,95831.53
2022-10-19T05:28:42.525Z,95837.88
2022-10-19T05:31:16.369Z,95827.72
2022-10-19T05:33:43.766Z,95835.00
2022-10-19T05:36:15.242Z,95824.69
2022-10-19T05:38:42.656Z,95831.88
2022-10-19T05:41:09.819Z,95836.97
2022-10-19T05:43:36.496Z,95833.19
2022-10-19T05:46:05.936Z,95834.69
2022-10-19T05:48:35.143Z,95831.78
2022-10-19T05:51:04.551Z,95821.72
2022-10-19T05:53:32.991Z,95835.09
2022-10-19T05:55:59.752Z,95835.84
2022-10-19T05:58:26.937Z,95827.66
2022-10-19T06:00:56.005Z,95830.84
2022-10-19T06:03:23.480Z,95829.06
2022-10-19T06:05:51.176Z,95826.28
2022-10-19T06:08:19.406Z,95829.97
2022-10-19T06:10:47.364Z,95827.78
2022-10-19T06:13:16.368Z,95829.66
2022-10-19T06:15:43.724Z,95822.03
2022-10-19T06:18:12.016Z,95830.97
2022-10-19T06:20:42.032Z,95828.78
2022-10-19T06:23:09.899Z,95831.44
2022-10-19T06:25:36.936Z,95828.16
2022-10-19T06:28:04.333Z,95835.53
2022-10-19T06:30:31.025Z,95834.78
2022-10-19T06:32:59.495Z,95841.59
2022-10-19T06:35:26.209Z,95832.44
2022-10-19T06:37:52.859Z,95826.34
2022-10-19T06:40:19.520Z,95835.78
2022-10-19T06:42:46.148Z,95826.19
2022-10-19T06:45:12.785Z,95818.94
2022-10-19T06:47:39.603Z,95814.91
2022-10-19T06:50:07.273Z,95825.00
2022-10-19T06:52:35.636Z,95818.59
2022-10-19T06:55:03.678Z,95825.31
2022-10-19T06:57:30.314Z,95831.91
2022-10-19T06:59:57.988Z,95836.63
2022-10-19T07:02:24.687Z,95839.75
2022-10-19T07:04:51.371Z,95840.47
2022-10-19T07:07:18.023Z,95838.16
2022-10-19T07:09:44.709Z,95839.78
2022-10-19T07:12:11.395Z,95837.47
2022-10-19T07:14:38.734Z,95837.69
2022-10-19T07:17:11.452Z,95833.72
2022-10-19T07:19:39.523Z,95834.25
2022-10-19T07:22:07.484Z,95826.88
2022-10-19T07:24:34.124Z,95822.91
2022-10-19T07:27:01.077Z,95827.34
2022-10-19T07:29:27.724Z,95824.72
2022-10-19T07:31:54.429Z,95823.41
2022-10-19T07:34:23.176Z,95821.66
2022-10-19T07:36:52.110Z,95816.91
2022-10-19T07:39:21.922Z,95821.81
2022-10-19T07:41:48.893Z,95825.06
2022-10-19T07:44:15.986Z,95828.31
2022-10-19T07:46:43.001Z,95829.97
2022-10-19T07:49:13.992Z,95828.81
2022-10-19T07:51:41.047Z,95828.38
2022-10-19T07:54:08.068Z,95816.22
2022-10-19T07:56:35.460Z,95816.28
2022-10-19T07:59:02.107Z,95819.53
2022-10-19T08:01:37.826Z,95825.25
2022-10-19T08:06:51.249Z,95818.84
2022-10-19T08:09:33.731Z,95829.19
2022-10-19T08:12:05.879Z,95829.25
2022-10-19T08:14:32.614Z,95828.63
2022-10-19T08:16:59.884Z,95820.97
2022-10-19T08:19:26.486Z,95818.25
2022-10-19T08:21:53.114Z,95814.56
2022-10-19T08:24:21.121Z,95811.16
2022-10-19T08:26:48.326Z,95808.72
2022-10-19T08:29:20.446Z,95810.88
2022-10-19T08:31:48.216Z,95807.78
2022-10-19T08:34:15.913Z,95797.94
2022-10-19T08:36:43.335Z,95792.38
2022-10-19T08:39:10.797Z,95797.22
2022-10-19T08:41:40.389Z,95797.72
2022-10-19T08:44:18.793Z,95810.00
2022-10-19T08:47:12.345Z,95805.34
2022-10-19T08:49:41.476Z,95808.13
2022-10-19T08:52:27.725Z,95798.06
2022-10-19T08:55:00.421Z,95796.16
2022-10-19T08:57:51.513Z,95791.13
2022-10-19T09:00:26.853Z,95788.19
2022-10-19T09:02:59.184Z,95785.72
2022-10-19T09:05:57.633Z,95787.06
2022-10-19T09:08:24.488Z,95787.06
2022-10-19T09:10:55.367Z,95785.78
2022-10-19T09:13:41.736Z,95792.59
2022-10-19T09:16:25.534Z,95790.66
2022-10-19T09:21:44.581Z,95777.97
2022-10-19T09:24:27.784Z,95786.22
2022-10-19T09:26:58.409Z,95786.06
2022-10-19T09:29:38.847Z,95782.28
2022-10-19T09:32:17.140Z,95785.00
2022-10-19T09:34:50.898Z,95778.69
2022-10-19T09:37:25.691Z,95782.47
2022-10-19T09:39:54.932Z,95779.16
2022-10-19T09:42:27.929Z,95779.88
2022-10-19T09:44:55.336Z,95764.25
2022-10-19T09:47:37.903Z,95771.91
2022-10-19T09:50:26.262Z,95764.19
2022-10-19T09:53:03.536Z,95763.34
2022-10-19T09:55:42.543Z,95761.81
2022-10-19T09:58:15.088Z,95755.84
2022-10-19T10:00:52.010Z,95763.56
2022-10-19T10:03:24.453Z,95746.41
2022-10-19T10:05:51.700Z,95753.38
2022-10-19T10:08:22.666Z,95750.34
2022-10-19T10:11:04.830Z,95754.31
2022-10-19T10:13:36.987Z,95760.63
2022-10-19T10:16:08.227Z,95760.41
2022-10-19T10:18:59.455Z,95771.72
2022-10-19T10:21:32.234Z,95763.84
2022-10-19T10:24:10.367Z,95764.16
2022-10-19T10:26:47.543Z,95751.78
2022-10-19T10:29:35.488Z,95755.81
2022-10-19T10:32:07.594Z,95748.28
2022-10-19T10:34:51.768Z,95749.38
2022-10-19T10:37:28.144Z,95747.81
2022-10-19T10:40:00.433Z,95746.66
2022-10-19T10:42:45.007Z,95748.63
2022-10-19T10:45:20.271Z,95746.13
2022-10-19T10:47:48.408Z,95728.63
2022-10-19T10:50:31.615Z,95731.03
2022-10-19T10:53:01.574Z,95727.50
2022-10-19T10:55:30.976Z,95720.91
2022-10-19T10:58:19.713Z,95716.41
2022-10-19T11:00:51.572Z,95716.09
2022-10-19T11:03:27.552Z,95719.69
2022-10-19T11:05:59.772Z,95714.09
2022-10-19T11:08:41.550Z,95716.09
2022-10-19T11:11:20.485Z,95696.91
2022-10-19T11:14:04.501Z,95694.28
2022-10-19T11:16:44.104Z,95694.44
2022-10-19T11:19:26.229Z,95698.28
2022-10-19T11:22:16.786Z,95690.72
2022-10-19T11:24:58.117Z,95683.97
2022-10-19T11:27:50.021Z,95687.25
2022-10-19T11:30:23.126Z,95682.00
2022-10-19T11:32:52.732Z,95680.84
2022-10-19T11:35:30.991Z,95672.19
2022-10-19T11:38:20.320Z,95657.88
2022-10-19T11:41:18.237Z,95661.38
2022-10-19T11:43:59.224Z,95648.66
2022-10-19T11:46:48.855Z,95652.66
2022-10-19T11:49:47.896Z,95652.50
2022-10-19T11:52:43.808Z,95642.81
2022-10-19T11:55:35.598Z,95634.22
2022-10-19T11:58:05.231Z,95638.03
2022-10-19T12:00:50.049Z,95626.84
2022-10-19T12:03:22.757Z,95621.56
2022-10-19T12:06:01.453Z,95617.50
2022-10-19T12:08:56.680Z,95616.13
2022-10-19T12:11:45.944Z,95622.56
2022-10-19T12:14:22.270Z,95615.84
2022-10-19T12:16:56.222Z,95615.56
2022-10-19T12:19:34.717Z,95617.53
2022-10-19T12:22:05.690Z,95604.94
2022-10-19T12:24:34.664Z,95591.56
2022-10-19T12:27:01.944Z,95584.38
2022-10-19T12:29:37.259Z,95585.97
2022-10-19T12:32:06.145Z,95579.50
2022-10-19T12:34:57.841Z,95580.81
2022-10-19T12:37:37.661Z,95585.66
2022-10-19T12:40:17.711Z,95591.06
2022-10-19T12:42:59.898Z,95593.19
2022-10-19T12:45:47.001Z,95586.25
2022-10-19T12:48:13.525Z,95578.75
2022-10-19T12:50:49.002Z,95572.56
2022-10-19T12:53:41.601Z,95575.97
2022-10-19T12:56:08.160Z,95568.25
2022-10-19T12:58:46.568Z,95570.16
2022-10-19T13:01:35.730Z,95570.38
2022-10-19T13:04:14.505Z,95569.03
2022-10-19T13:06:48.503Z,95575.78
2022-10-19T13:09:34.782Z,95578.19
2022-10-19T13:12:16.237Z,95572.25
2022-10-19T13:14:57.077Z,95572.47
2022-10-19T13:17:35.708Z,95564.53
2022-10-19T13:20:14.690Z,95549.53
2022-10-19T13:23:11.947Z,95555.66
2022-10-19T13:25:42.075Z,95551.38
2022-10-19T13:28:08.817Z,95552.94
2022-10-19T13:30:35.448Z,95548.88
2022-10-19T13:33:44.048Z,95548.63
2022-10-19T13:36:12.736Z,95537.69
2022-10-19T13:38:45.008Z,95535.28
2022-10-19T13:41:18.961Z,95536.38
2022-10-19T13:44:18.947Z,95544.63
2022-10-19T13:46:55.099Z,95536.06
2022-10-19T13:49:41.109Z,95537.69
2022-10-19T13:52:42.097Z,95538.53
2022-10-19T13:55:32.860Z,95540.91
2022-10-19T13:58:34.694Z,95541.38
2022-10-19T14:01:16.665Z,95532.19
2022-10-19T14:04:20.217Z,95537.47
2022-10-19T14:07:24.467Z,95536.63
2022-10-19T14:10:18.409Z,95529.38
2022-10-19T14:12:46.989Z,95523.19
2022-10-19T14:15:25.459Z,95529.41
2022-10-19T14:17:52.107Z,95524.50
2022-10-19T14:20:34.084Z,95529.78
2022-10-19T14:23:25.926Z,95516.41
2022-10-19T14:25:58.807Z,95511.63
2022-10-19T14:28:27.685Z,95506.31
2022-10-19T14:30:59.201Z,95505.50
2022-10-19T14:33:28.406Z,95510.50
2022-10-19T14:35:56.144Z,95497.16
2022-10-19T14:38:43.495Z,95498.63
2022-10-19T14:41:26.903Z,95492.06
2022-10-19T14:43:55.538Z,95492.34
2022-10-19T14:46:26.635Z,95495.03
2022-10-19T14:49:02.901Z,95506.75
2022-10-19T14:51:54.266Z,95502.50
2022-10-19T14:54:36.929Z,95501.72
2022-10-19T14:57:14.854Z,95504.97
2022-10-19T14:59:49.873Z,95495.81
2022-10-19T15:02:25.115Z,95490.00
2022-10-19T15:04:55.859Z,95492.09
2022-10-19T15:07:28.668Z,95495.28
2022-10-19T15:09:59.440Z,95491.59
2022-10-19T15:12:35.373Z,95484.31
2022-10-19T15:15:08.552Z,95481.59
2022-10-19T15:17:35.748Z,95486.75
2022-10-19T15:20:02.460Z,95491.06
2022-10-19T15:22:32.430Z,95494.81
2022-10-19T15:25:08.259Z,95491.31
2022-10-19T15:27:40.992Z,95489.72
2022-10-19T15:30:19.715Z,95475.75
2022-10-19T15:32:49.729Z,95473.78
2022-10-19T15:35:25.218Z,95471.16
2022-10-19T15:38:01.859Z,95472.25
2022-10-19T15:40:59.573Z,95467.19
2022-10-19T15:43:31.818Z,95462.91
2022-10-19T15:46:08.314Z,95458.56
2022-10-19T15:48:40.981Z,95465.53
2022-10-19T15:51:25.731Z,95463.44
2022-10-19T15:54:00.329Z,95464.44
2022-10-19T15:56:31.086Z,95462.88
2022-10-19T15:59:00.159Z,95466.66
2022-10-19T16:01:30.367Z,95467.44
2022-10-19T16:03:57.060Z,95472.28
2022-10-19T16:06:27.814Z,95468.00
2022-10-19T16:08:54.587Z,95462.41
2022-10-19T16:11:23.275Z,95459.16
2022-10-19T16:13:50.753Z,95474.19
2022-10-19T16:16:30.633Z,95477.94
2022-10-19T16:18:58.216Z,95464.53
2022-10-19T16:21:30.349Z,95471.78
2022-10-19T16:23:57.176Z,95469.16
2022-10-19T16:26:24.087Z,95461.09
2022-10-19T16:28:50.864Z,95456.84
2022-10-19T16:31:18.207Z,95461.75
2022-10-19T16:33:44.820Z,95461.53
2022-10-19T16:36:11.827Z,95456.78
2022-10-19T16:38:38.851Z,95460.91
2022-10-19T16:41:08.362Z,95457.19
2022-10-19T16:43:36.854Z,95455.72
2022-10-19T16:46:05.115Z,95462.84
2022-10-19T16:48:32.930Z,95456.72
2022-10-19T16:51:05.416Z,95469.28
2022-10-19T16:53:32.182Z,95478.13
2022-10-19T16:56:07.883Z,95488.16
2022-10-19T16:58:35.359Z,95490.03
2022-10-19T17:01:08.085Z,95492.03
2022-10-19T17:03:34.910Z,95495.28
2022-10-19T17:06:06.844Z,95501.69
2022-10-19T17:08:37.103Z,95493.66
2022-10-19T17:11:20.816Z,95487.97
2022-10-19T17:13:49.990Z,95494.94
2022-10-19T17:16:19.039Z,95491.72
2022-10-19T17:18:47.053Z,95491.22
2022-10-19T17:21:26.064Z,95497.31
2022-10-19T17:23:55.346Z,95494.91
2022-10-19T17:26:30.325Z,95499.94
2022-10-19T17:28:57.310Z,95503.38
2022-10-19T17:31:24.251Z,95496.00
2022-10-19T17:33:51.380Z,95491.03
2022-10-19T17:36:27.586Z,95488.97
2022-10-19T17:38:55.744Z,95489.13
2022-10-19T17:41:22.844Z,95484.72
2022-10-19T17:43:50.969Z,95496.06
2022-10-19T17:46:20.890Z,95509.09
2022-10-19T17:48:48.838Z,95508.09
2022-10-19T17:51:18.621Z,95516.09
2022-10-19T17:53:48.468Z,95511.75
2022-10-19T17:56:18.179Z,95521.94
2022-10-19T17:58:48.195Z,95522.59
2022-10-19T18:01:17.171Z,95507.41
2022-10-19T18:03:43.812Z,95504.97
2022-10-19T18:06:16.442Z,95507.16
2022-10-19T18:08:46.110Z,95496.31
2022-10-19T18:11:12.972Z,95495.50
2022-10-19T18:13:41.136Z,95506.41
2022-10-19T18:16:14.954Z,95508.47
2022-10-19T18:18:44.305Z,95506.25
2022-10-19T18:21:13.187Z,95503.19
2022-10-19T18:23:40.857Z,95507.59
2022-10-19T18:26:14.333Z,95512.91
2022-10-19T18:28:42.245Z,95513.88
2022-10-19T18:31:11.542Z,95502.53
2022-10-19T18:33:39.064Z,95497.28
2022-10-19T18:36:10.171Z,95500.63
2022-10-19T18:38:37.381Z,95501.03
2022-10-19T18:41:10.492Z,95500.81
2022-10-19T18:43:38.293Z,95508.72
2022-10-19T18:46:05.093Z,95507.34
2022-10-19T18:48:32.266Z,95509.44
2022-10-19T18:51:04.882Z,95513.72
2022-10-19T18:53:32.892Z,95508.91
2022-10-19T18:56:05.818Z,95507.97
2022-10-19T18:58:33.598Z,95500.31
2022-10-19T19:01:08.742Z,95502.78
2022-10-19T19:03:39.040Z,95495.41
2022-10-19T19:06:08.924Z,95491.69
2022-10-19T19:08:35.715Z,95491.66
2022-10-19T19:11:12.338Z,95496.16
2022-10-19T19:13:39.542Z,95487.69
2022-10-19T19:16:08.375Z,95488.16
2022-10-19T19:18:35.464Z,95495.94
2022-10-19T19:21:04.088Z,95497.69
2022-10-19T19:23:31.317Z,95490.97
2022-10-19T19:25:59.077Z,95490.47
2022-10-19T19:28:26.781Z,95495.53
2022-10-19T19:30:53.472Z,95492.22
2022-10-19T19:33:20.154Z,95496.28
2022-10-19T19:35:48.586Z,95492.59
2022-10-19T19:38:16.100Z,95492.00
2022-10-19T19:40:44.937Z,95491.47
2022-10-19T19:43:14.353Z,95492.91
2022-10-19T19:45:42.572Z,95493.97
2022-10-19T19:48:10.268Z,95500.91
2022-10-19T19:50:37.942Z,95494.13
2022-10-19T19:53:04.764Z,95500.63
2022-10-19T19:55:36.774Z,95495.75
2022-10-19T19:58:05.701Z,95495.69
2022-10-19T20:00:32.577Z,95491.53
2022-10-19T20:02:59.704Z,95500.09
2022-10-19T20:05:27.854Z,95501.69
2022-10-19T20:07:54.505Z,95502.91
2022-10-19T20:10:21.393Z,95500.88
2022-10-19T20:12:47.986Z,95499.28
2022-10-19T20:15:17.552Z,95501.56
2022-10-19T20:17:45.103Z,95498.47
2022-10-19T20:20:13.626Z,95502.00
2022-10-19T20:22:44.773Z,95494.28
2022-10-19T20:25:11.449Z,95493.84
2022-10-19T20:27:38.324Z,95496.13
2022-10-19T20:30:05.852Z,95512.28
2022-10-19T20:32:32.685Z,95514.78
2022-10-19T20:34:59.401Z,95511.03
2022-10-19T20:37:26.032Z,95514.78
2022-10-19T20:39:52.615Z,95511.75
2022-10-19T20:42:19.328Z,95510.88
2022-10-19T20:44:45.914Z,95507.56
2022-10-19T20:47:12.518Z,95516.25
2022-10-19T20:49:39.127Z,95512.97
2022-10-19T20:52:06.650Z,95510.69
2022-10-19T20:54:33.476Z,95513.41
2022-10-19T20:57:00.071Z,95515.13
2022-10-19T20:59:26.728Z,95508.59
2022-10-19T21:01:57.518Z,95510.53
2022-10-19T21:04:25.451Z,95501.28
2022-10-19T21:06:52.961Z,95505.59
2022-10-19T21:09:22.300Z,95503.66
2022-10-19T21:11:51.277Z,95497.56
2022-10-19T21:14:25.384Z,95498.34
2022-10-19T21:16:56.139Z,95502.41
2022-10-19T21:19:25.465Z,95499.75
2022-10-19T21:21:58.285Z,95506.09
2022-10-19T21:24:28.708Z,95519.53
2022-10-19T21:26:55.506Z,95519.50
2022-10-19T21:29:22.142Z,95520.53
2022-10-19T21:31:50.336Z,95528.41
2022-10-19T21:34:20.924Z,95518.81
2022-10-19T21:36:47.870Z,95523.88
2022-10-19T21:39:14.532Z,95522.88
2022-10-19T21:41:41.300Z,95516.16
2022-10-19T21:44:07.926Z,95518.38
2022-10-19T21:46:34.641Z,95507.38
2022-10-19T21:49:01.270Z,95503.66
2022-10-19T21:51:47.701Z,95508.53
2022-10-19T21:54:17.811Z,95501.84
2022-10-19T21:56:44.899Z,95496.25
2022-10-19T21:59:12.534Z,95495.19
2022-10-19T22:01:41.487Z,95493.69
2022-10-19T22:04:15.133Z,95489.09
2022-10-19T22:06:43.006Z,95491.38
2022-10-19T22:09:13.973Z,95490.06
2022-10-19T22:11:41.281Z,95480.66
2022-10-19T22:14:08.026Z,95488.41
2022-10-19T22:16:34.730Z,95489.56
2022-10-19T22:19:01.317Z,95493.50
2022-10-19T22:21:30.869Z,95483.28
2022-10-19T22:24:03.079Z,95485.19
2022-10-19T22:26:35.609Z,95487.19
2022-10-19T22:29:04.016Z,95485.41
2022-10-19T22:31:32.148Z,95475.00
2022-10-19T22:34:08.774Z,95474.09
2022-10-19T22:36:35.474Z,95470.63
2022-10-19T22:39:02.136Z,95470.84
2022-10-19T22:41:28.732Z,95469.50
2022-10-19T22:43:55.375Z,95470.72
2022-10-19T22:46:22.019Z,95463.88
2022-10-19T22:48:48.648Z,95455.41
2022-10-19T22:51:15.278Z,95452.13
2022-10-19T22:53:41.939Z,95451.72
2022-10-19T22:56:11.805Z,95453.91
2022-10-19T22:58:38.842Z,95447.25
2022-10-19T23:01:07.787Z,95439.22
2022-10-19T23:03:34.486Z,95436.66
2022-10-19T23:06:01.678Z,95440.53
2022-10-19T23:08:28.373Z,95442.72
2022-10-19T23:10:55.105Z,95441.47
2022-10-19T23:13:22.082Z,95424.88
2022-10-19T23:15:48.824Z,95428.84
2022-10-19T23:18:15.458Z,95422.00
2022-10-19T23:20:42.527Z,95421.63
2022-10-19T23:23:09.607Z,95425.00
2022-10-19T23:25:36.198Z,95413.53
2022-10-19T23:28:02.862Z,95424.66
2022-10-19T23:30:29.436Z,95420.22
2022-10-19T23:32:59.108Z,95410.78
2022-10-19T23:35:25.724Z,95416.44
2022-10-19T23:37:52.475Z,95421.13
2022-10-19T23:40:19.152Z,95411.78
2022-10-19T23:42:45.756Z,95413.16
2022-10-19T23:45:12.434Z,95414.19
2022-10-19T23:47:39.153Z,95408.41
2022-10-19T23:50:06.306Z,95402.28
2022-10-19T23:52:32.950Z,95409.66
2022-10-19T23:54:59.571Z,95404.00
2022-10-19T23:57:26.201Z,95414.44
2022-10-19T23:59:52.776Z,95421.91
